Emmer-Compascuum, Netherlands
Current Conditions -  °F | °C
As of 12:55 AM on Monday 26 Jan 2015 (Local Time) from EHGG Reporting Station
Haze Haze  
Wind Chill: 31°   Ceiling: 300
Heat Index: 37°   Visibility: 1.8mi
Dew Point: 37°   Wind: 8mph
Humidity: 100%   Direction: 200°SSW
Pressure: 30.21"   Gusts: NA
Location:  52.81°N, 7.05°E
Report Text: EHGG 252355Z AUTO 20007KT 2900 BR BKN003 FEW015CB 03/03 Q1023
Loading
Personal Weather Stations






























Interactive Weather Map New forecast layout! Learn more

10-Day Weather Forecast

Advertisements
Track Severe Weather on mobile